sensor_id;sensor_type;location;lat;lon;timestamp;P1;durP1;ratioP1;P2;durP2;ratioP2
46407;SDS011;32110;45.724;21.276;2023-07-02T00:02:24;6.65;;;4.07;;
46407;SDS011;32110;45.724;21.276;2023-07-02T00:04:49;8.38;;;3.97;;
46407;SDS011;32110;45.724;21.276;2023-07-02T00:07:15;7.28;;;4.30;;
46407;SDS011;32110;45.724;21.276;2023-07-02T00:09:40;12.45;;;4.40;;
46407;SDS011;32110;45.724;21.276;2023-07-02T00:12:06;7.00;;;3.95;;
46407;SDS011;32110;45.724;21.276;2023-07-02T00:14:32;14.30;;;4.53;;
46407;SDS011;32110;45.724;21.276;2023-07-02T00:16:57;8.23;;;5.05;;
46407;SDS011;32110;45.724;21.276;2023-07-02T00:19:23;9.23;;;4.75;;
46407;SDS011;32110;45.724;21.276;2023-07-02T00:21:48;7.38;;;4.57;;
46407;SDS011;32110;45.724;21.276;2023-07-02T00:24:14;8.55;;;4.45;;
46407;SDS011;32110;45.724;21.276;2023-07-02T00:26:40;8.00;;;4.38;;
46407;SDS011;32110;45.724;21.276;2023-07-02T00:29:06;7.80;;;4.55;;
46407;SDS011;32110;45.724;21.276;2023-07-02T00:31:33;8.50;;;4.30;;
46407;SDS011;32110;45.724;21.276;2023-07-02T00:33:59;6.85;;;4.63;;
46407;SDS011;32110;45.724;21.276;2023-07-02T00:36:26;8.90;;;4.47;;
46407;SDS011;32110;45.724;21.276;2023-07-02T00:38:51;8.35;;;4.78;;
46407;SDS011;32110;45.724;21.276;2023-07-02T00:41:17;8.35;;;4.80;;
46407;SDS011;32110;45.724;21.276;2023-07-02T00:43:43;7.43;;;4.38;;
46407;SDS011;32110;45.724;21.276;2023-07-02T00:48:51;7.78;;;4.85;;
46407;SDS011;32110;45.724;21.276;2023-07-02T00:51:21;9.55;;;5.10;;
46407;SDS011;32110;45.724;21.276;2023-07-02T00:53:47;7.50;;;4.55;;
46407;SDS011;32110;45.724;21.276;2023-07-02T00:56:13;6.97;;;4.63;;
46407;SDS011;32110;45.724;21.276;2023-07-02T00:58:40;8.90;;;4.65;;
46407;SDS011;32110;45.724;21.276;2023-07-02T01:01:12;8.68;;;4.85;;
46407;SDS011;32110;45.724;21.276;2023-07-02T01:03:39;9.27;;;5.30;;
46407;SDS011;32110;45.724;21.276;2023-07-02T01:06:17;8.90;;;4.85;;
46407;SDS011;32110;45.724;21.276;2023-07-02T01:08:44;7.65;;;4.85;;
46407;SDS011;32110;45.724;21.276;2023-07-02T01:11:10;6.97;;;4.32;;
46407;SDS011;32110;45.724;21.276;2023-07-02T01:13:35;6.93;;;4.75;;
46407;SDS011;32110;45.724;21.276;2023-07-02T01:16:01;7.65;;;4.53;;
46407;SDS011;32110;45.724;21.276;2023-07-02T01:18:26;9.18;;;5.05;;
46407;SDS011;32110;45.724;21.276;2023-07-02T01:20:52;9.13;;;5.25;;
46407;SDS011;32110;45.724;21.276;2023-07-02T01:23:18;8.25;;;5.13;;
46407;SDS011;32110;45.724;21.276;2023-07-02T01:25:44;7.43;;;4.68;;
46407;SDS011;32110;45.724;21.276;2023-07-02T01:28:10;9.73;;;5.55;;
46407;SDS011;32110;45.724;21.276;2023-07-02T01:30:37;12.57;;;5.30;;
46407;SDS011;32110;45.724;21.276;2023-07-02T01:33:02;8.15;;;5.22;;
46407;SDS011;32110;45.724;21.276;2023-07-02T01:35:28;11.65;;;6.38;;
46407;SDS011;32110;45.724;21.276;2023-07-02T01:37:53;8.68;;;5.28;;
46407;SDS011;32110;45.724;21.276;2023-07-02T01:40:19;9.38;;;5.63;;
46407;SDS011;32110;45.724;21.276;2023-07-02T01:42:44;8.82;;;5.57;;
46407;SDS011;32110;45.724;21.276;2023-07-02T01:45:10;8.00;;;5.30;;
46407;SDS011;32110;45.724;21.276;2023-07-02T01:47:35;11.50;;;6.15;;
46407;SDS011;32110;45.724;21.276;2023-07-02T01:50:02;9.18;;;6.20;;
46407;SDS011;32110;45.724;21.276;2023-07-02T01:52:28;12.57;;;5.93;;
46407;SDS011;32110;45.724;21.276;2023-07-02T01:54:57;12.98;;;5.85;;
46407;SDS011;32110;45.724;21.276;2023-07-02T01:57:23;9.70;;;6.70;;
46407;SDS011;32110;45.724;21.276;2023-07-02T01:59:48;13.63;;;6.25;;
46407;SDS011;32110;45.724;21.276;2023-07-02T02:02:14;9.65;;;6.18;;
46407;SDS011;32110;45.724;21.276;2023-07-02T02:04:39;11.40;;;5.68;;
46407;SDS011;32110;45.724;21.276;2023-07-02T02:07:04;10.27;;;5.97;;
46407;SDS011;32110;45.724;21.276;2023-07-02T02:09:30;11.10;;;6.20;;
46407;SDS011;32110;45.724;21.276;2023-07-02T02:11:57;8.63;;;5.43;;
46407;SDS011;32110;45.724;21.276;2023-07-02T02:14:22;10.85;;;5.80;;
46407;SDS011;32110;45.724;21.276;2023-07-02T02:16:48;12.02;;;5.78;;
46407;SDS011;32110;45.724;21.276;2023-07-02T02:19:13;8.88;;;5.82;;
46407;SDS011;32110;45.724;21.276;2023-07-02T02:21:40;11.18;;;6.55;;
46407;SDS011;32110;45.724;21.276;2023-07-02T02:24:06;14.82;;;6.40;;
46407;SDS011;32110;45.724;21.276;2023-07-02T02:26:32;13.57;;;6.82;;
46407;SDS011;32110;45.724;21.276;2023-07-02T02:28:58;11.35;;;5.90;;
46407;SDS011;32110;45.724;21.276;2023-07-02T02:31:23;9.25;;;6.22;;
46407;SDS011;32110;45.724;21.276;2023-07-02T02:33:49;13.55;;;5.97;;
46407;SDS011;32110;45.724;21.276;2023-07-02T02:36:14;15.05;;;5.88;;
46407;SDS011;32110;45.724;21.276;2023-07-02T02:38:40;10.23;;;5.85;;
46407;SDS011;32110;45.724;21.276;2023-07-02T02:41:06;11.32;;;6.20;;
46407;SDS011;32110;45.724;21.276;2023-07-02T02:43:33;10.80;;;6.00;;
46407;SDS011;32110;45.724;21.276;2023-07-02T02:45:59;12.55;;;6.40;;
46407;SDS011;32110;45.724;21.276;2023-07-02T02:48:25;10.00;;;6.75;;
46407;SDS011;32110;45.724;21.276;2023-07-02T02:50:50;11.27;;;6.07;;
46407;SDS011;32110;45.724;21.276;2023-07-02T02:53:15;10.93;;;6.57;;
46407;SDS011;32110;45.724;21.276;2023-07-02T02:55:41;13.98;;;6.63;;
46407;SDS011;32110;45.724;21.276;2023-07-02T02:58:06;10.75;;;7.25;;
46407;SDS011;32110;45.724;21.276;2023-07-02T03:00:31;11.00;;;8.35;;
46407;SDS011;32110;45.724;21.276;2023-07-02T03:02:57;16.02;;;7.22;;
46407;SDS011;32110;45.724;21.276;2023-07-02T03:05:24;12.02;;;6.57;;
46407;SDS011;32110;45.724;21.276;2023-07-02T03:07:50;10.35;;;6.70;;
46407;SDS011;32110;45.724;21.276;2023-07-02T03:10:15;12.65;;;7.25;;
46407;SDS011;32110;45.724;21.276;2023-07-02T03:12:41;12.75;;;6.97;;
46407;SDS011;32110;45.724;21.276;2023-07-02T03:15:06;12.35;;;7.50;;
46407;SDS011;32110;45.724;21.276;2023-07-02T03:17:33;14.15;;;7.40;;
46407;SDS011;32110;45.724;21.276;2023-07-02T03:19:58;12.80;;;7.00;;
46407;SDS011;32110;45.724;21.276;2023-07-02T03:22:24;9.73;;;6.68;;
46407;SDS011;32110;45.724;21.276;2023-07-02T03:24:49;12.63;;;7.10;;
46407;SDS011;32110;45.724;21.276;2023-07-02T03:27:14;11.55;;;7.35;;
46407;SDS011;32110;45.724;21.276;2023-07-02T03:29:40;14.32;;;7.22;;
46407;SDS011;32110;45.724;21.276;2023-07-02T03:32:05;11.63;;;7.72;;
46407;SDS011;32110;45.724;21.276;2023-07-02T03:34:31;10.25;;;6.57;;
46407;SDS011;32110;45.724;21.276;2023-07-02T03:36:56;8.20;;;5.82;;
46407;SDS011;32110;45.724;21.276;2023-07-02T03:39:22;9.82;;;6.30;;
46407;SDS011;32110;45.724;21.276;2023-07-02T03:41:47;12.65;;;6.60;;
46407;SDS011;32110;45.724;21.276;2023-07-02T03:44:13;12.32;;;6.35;;
46407;SDS011;32110;45.724;21.276;2023-07-02T03:46:38;14.60;;;6.15;;
46407;SDS011;32110;45.724;21.276;2023-07-02T03:49:03;13.00;;;6.60;;
46407;SDS011;32110;45.724;21.276;2023-07-02T03:51:29;11.85;;;6.57;;
46407;SDS011;32110;45.724;21.276;2023-07-02T03:53:55;10.93;;;6.45;;
46407;SDS011;32110;45.724;21.276;2023-07-02T03:56:20;11.68;;;7.28;;
46407;SDS011;32110;45.724;21.276;2023-07-02T03:58:46;12.23;;;6.57;;
46407;SDS011;32110;45.724;21.276;2023-07-02T04:01:11;14.90;;;6.80;;
46407;SDS011;32110;45.724;21.276;2023-07-02T04:03:37;16.00;;;5.90;;
46407;SDS011;32110;45.724;21.276;2023-07-02T04:06:02;11.77;;;6.90;;
46407;SDS011;32110;45.724;21.276;2023-07-02T04:08:30;11.02;;;6.38;;
46407;SDS011;32110;45.724;21.276;2023-07-02T04:10:56;10.75;;;6.75;;
46407;SDS011;32110;45.724;21.276;2023-07-02T04:13:21;12.18;;;6.55;;
46407;SDS011;32110;45.724;21.276;2023-07-02T04:15:46;10.80;;;6.65;;
46407;SDS011;32110;45.724;21.276;2023-07-02T04:18:12;11.98;;;5.97;;
46407;SDS011;32110;45.724;21.276;2023-07-02T04:20:38;10.93;;;6.38;;
46407;SDS011;32110;45.724;21.276;2023-07-02T04:23:04;11.82;;;6.68;;
46407;SDS011;32110;45.724;21.276;2023-07-02T04:25:29;14.32;;;7.07;;
46407;SDS011;32110;45.724;21.276;2023-07-02T04:27:55;10.10;;;6.40;;
46407;SDS011;32110;45.724;21.276;2023-07-02T04:30:22;10.35;;;6.85;;
46407;SDS011;32110;45.724;21.276;2023-07-02T04:32:47;14.13;;;6.80;;
46407;SDS011;32110;45.724;21.276;2023-07-02T04:35:12;13.57;;;7.68;;
46407;SDS011;32110;45.724;21.276;2023-07-02T04:37:38;14.75;;;7.63;;
46407;SDS011;32110;45.724;21.276;2023-07-02T04:40:04;11.40;;;7.20;;
46407;SDS011;32110;45.724;21.276;2023-07-02T04:42:39;12.48;;;6.78;;
46407;SDS011;32110;45.724;21.276;2023-07-02T04:45:11;11.57;;;7.13;;
46407;SDS011;32110;45.724;21.276;2023-07-02T04:47:38;11.20;;;7.03;;
46407;SDS011;32110;45.724;21.276;2023-07-02T04:50:03;12.20;;;6.82;;
46407;SDS011;32110;45.724;21.276;2023-07-02T04:52:30;14.30;;;7.30;;
46407;SDS011;32110;45.724;21.276;2023-07-02T04:54:56;13.88;;;7.47;;
46407;SDS011;32110;45.724;21.276;2023-07-02T04:57:22;17.40;;;7.10;;
46407;SDS011;32110;45.724;21.276;2023-07-02T04:59:47;12.50;;;6.88;;
46407;SDS011;32110;45.724;21.276;2023-07-02T05:02:12;13.05;;;7.13;;
46407;SDS011;32110;45.724;21.276;2023-07-02T05:04:38;12.63;;;6.82;;
46407;SDS011;32110;45.724;21.276;2023-07-02T05:07:03;12.23;;;6.85;;
46407;SDS011;32110;45.724;21.276;2023-07-02T05:09:29;13.10;;;6.70;;
46407;SDS011;32110;45.724;21.276;2023-07-02T05:11:55;13.77;;;6.90;;
46407;SDS011;32110;45.724;21.276;2023-07-02T05:14:20;13.70;;;6.93;;
46407;SDS011;32110;45.724;21.276;2023-07-02T05:16:45;10.73;;;6.50;;
46407;SDS011;32110;45.724;21.276;2023-07-02T05:19:11;11.57;;;6.68;;
46407;SDS011;32110;45.724;21.276;2023-07-02T05:21:36;16.45;;;7.93;;
46407;SDS011;32110;45.724;21.276;2023-07-02T05:24:01;10.93;;;6.60;;
46407;SDS011;32110;45.724;21.276;2023-07-02T05:26:27;10.77;;;6.78;;
46407;SDS011;32110;45.724;21.276;2023-07-02T05:28:52;12.00;;;6.63;;
46407;SDS011;32110;45.724;21.276;2023-07-02T05:31:18;12.35;;;7.15;;
46407;SDS011;32110;45.724;21.276;2023-07-02T05:33:43;12.57;;;6.75;;
46407;SDS011;32110;45.724;21.276;2023-07-02T05:36:09;11.55;;;7.05;;
46407;SDS011;32110;45.724;21.276;2023-07-02T05:38:34;11.40;;;7.18;;
46407;SDS011;32110;45.724;21.276;2023-07-02T05:41:00;11.77;;;7.15;;
46407;SDS011;32110;45.724;21.276;2023-07-02T05:43:25;11.90;;;8.05;;
46407;SDS011;32110;45.724;21.276;2023-07-02T05:45:51;14.48;;;7.40;;
46407;SDS011;32110;45.724;21.276;2023-07-02T05:48:17;13.40;;;7.80;;
46407;SDS011;32110;45.724;21.276;2023-07-02T05:50:43;11.57;;;7.63;;
46407;SDS011;32110;45.724;21.276;2023-07-02T05:53:08;11.82;;;7.60;;
46407;SDS011;32110;45.724;21.276;2023-07-02T05:55:34;13.23;;;8.02;;
46407;SDS011;32110;45.724;21.276;2023-07-02T05:58:00;15.55;;;8.35;;
46407;SDS011;32110;45.724;21.276;2023-07-02T06:00:27;14.55;;;8.10;;
46407;SDS011;32110;45.724;21.276;2023-07-02T06:02:53;12.70;;;8.40;;
46407;SDS011;32110;45.724;21.276;2023-07-02T06:05:18;11.65;;;8.10;;
46407;SDS011;32110;45.724;21.276;2023-07-02T06:07:44;12.80;;;8.48;;
46407;SDS011;32110;45.724;21.276;2023-07-02T06:10:09;15.85;;;9.02;;
46407;SDS011;32110;45.724;21.276;2023-07-02T06:12:35;15.02;;;8.85;;
46407;SDS011;32110;45.724;21.276;2023-07-02T06:15:00;16.70;;;8.80;;
46407;SDS011;32110;45.724;21.276;2023-07-02T06:17:25;18.20;;;8.98;;
46407;SDS011;32110;45.724;21.276;2023-07-02T06:19:51;17.23;;;8.73;;
46407;SDS011;32110;45.724;21.276;2023-07-02T06:22:16;13.35;;;9.05;;
46407;SDS011;32110;45.724;21.276;2023-07-02T06:24:42;14.32;;;9.02;;
46407;SDS011;32110;45.724;21.276;2023-07-02T06:27:07;16.05;;;9.93;;
46407;SDS011;32110;45.724;21.276;2023-07-02T06:29:33;12.45;;;8.68;;
46407;SDS011;32110;45.724;21.276;2023-07-02T06:31:58;12.57;;;8.77;;
46407;SDS011;32110;45.724;21.276;2023-07-02T06:34:24;14.15;;;9.48;;
46407;SDS011;32110;45.724;21.276;2023-07-02T06:36:49;15.88;;;9.13;;
46407;SDS011;32110;45.724;21.276;2023-07-02T06:39:15;13.45;;;9.07;;
46407;SDS011;32110;45.724;21.276;2023-07-02T06:41:40;15.10;;;9.63;;
46407;SDS011;32110;45.724;21.276;2023-07-02T06:44:06;14.43;;;9.85;;
46407;SDS011;32110;45.724;21.276;2023-07-02T06:46:31;14.10;;;9.93;;
46407;SDS011;32110;45.724;21.276;2023-07-02T06:48:57;16.42;;;9.95;;
46407;SDS011;32110;45.724;21.276;2023-07-02T06:51:22;18.30;;;9.85;;
46407;SDS011;32110;45.724;21.276;2023-07-02T06:53:50;16.30;;;9.88;;
46407;SDS011;32110;45.724;21.276;2023-07-02T06:56:15;16.80;;;9.57;;
46407;SDS011;32110;45.724;21.276;2023-07-02T06:58:41;14.93;;;9.90;;
46407;SDS011;32110;45.724;21.276;2023-07-02T07:01:07;13.23;;;9.02;;
46407;SDS011;32110;45.724;21.276;2023-07-02T07:03:33;14.52;;;9.02;;
46407;SDS011;32110;45.724;21.276;2023-07-02T07:05:59;17.10;;;9.10;;
46407;SDS011;32110;45.724;21.276;2023-07-02T07:08:25;19.52;;;9.75;;
46407;SDS011;32110;45.724;21.276;2023-07-02T07:10:50;15.70;;;9.93;;
46407;SDS011;32110;45.724;21.276;2023-07-02T07:13:15;14.68;;;9.60;;
46407;SDS011;32110;45.724;21.276;2023-07-02T07:15:41;16.48;;;9.27;;
46407;SDS011;32110;45.724;21.276;2023-07-02T07:18:08;15.93;;;9.40;;
46407;SDS011;32110;45.724;21.276;2023-07-02T07:20:34;16.35;;;9.45;;
46407;SDS011;32110;45.724;21.276;2023-07-02T07:22:59;16.42;;;9.23;;
46407;SDS011;32110;45.724;21.276;2023-07-02T07:25:24;17.15;;;8.70;;
46407;SDS011;32110;45.724;21.276;2023-07-02T07:27:51;13.95;;;9.30;;
46407;SDS011;32110;45.724;21.276;2023-07-02T07:30:17;17.35;;;9.30;;
46407;SDS011;32110;45.724;21.276;2023-07-02T07:32:47;13.88;;;9.30;;
46407;SDS011;32110;45.724;21.276;2023-07-02T07:35:13;13.18;;;9.25;;
46407;SDS011;32110;45.724;21.276;2023-07-02T07:37:38;14.85;;;9.15;;
46407;SDS011;32110;45.724;21.276;2023-07-02T07:40:04;13.93;;;9.90;;
46407;SDS011;32110;45.724;21.276;2023-07-02T07:42:31;15.45;;;9.75;;
46407;SDS011;32110;45.724;21.276;2023-07-02T07:44:56;16.35;;;10.38;;
46407;SDS011;32110;45.724;21.276;2023-07-02T07:47:21;17.52;;;10.48;;
46407;SDS011;32110;45.724;21.276;2023-07-02T07:49:47;17.58;;;10.45;;
46407;SDS011;32110;45.724;21.276;2023-07-02T07:52:12;16.83;;;10.38;;
46407;SDS011;32110;45.724;21.276;2023-07-02T07:54:37;16.77;;;10.95;;
46407;SDS011;32110;45.724;21.276;2023-07-02T07:57:03;18.45;;;10.63;;
46407;SDS011;32110;45.724;21.276;2023-07-02T07:59:29;14.70;;;10.43;;
46407;SDS011;32110;45.724;21.276;2023-07-02T08:01:55;18.45;;;10.48;;
46407;SDS011;32110;45.724;21.276;2023-07-02T08:04:20;16.55;;;10.40;;
46407;SDS011;32110;45.724;21.276;2023-07-02T08:06:46;17.50;;;10.02;;
46407;SDS011;32110;45.724;21.276;2023-07-02T08:09:11;15.43;;;9.93;;
46407;SDS011;32110;45.724;21.276;2023-07-02T08:11:36;18.63;;;10.48;;
46407;SDS011;32110;45.724;21.276;2023-07-02T08:14:02;13.20;;;9.98;;
46407;SDS011;32110;45.724;21.276;2023-07-02T08:16:27;15.50;;;10.68;;
46407;SDS011;32110;45.724;21.276;2023-07-02T08:18:52;14.82;;;10.85;;
46407;SDS011;32110;45.724;21.276;2023-07-02T08:21:18;14.73;;;10.90;;
46407;SDS011;32110;45.724;21.276;2023-07-02T08:23:43;15.93;;;10.52;;
46407;SDS011;32110;45.724;21.276;2023-07-02T08:26:09;14.07;;;10.70;;
46407;SDS011;32110;45.724;21.276;2023-07-02T08:28:36;16.35;;;10.35;;
46407;SDS011;32110;45.724;21.276;2023-07-02T08:31:03;17.95;;;10.57;;
46407;SDS011;32110;45.724;21.276;2023-07-02T08:33:29;16.60;;;11.07;;
46407;SDS011;32110;45.724;21.276;2023-07-02T08:35:54;14.48;;;10.40;;
46407;SDS011;32110;45.724;21.276;2023-07-02T08:38:20;15.88;;;9.95;;
46407;SDS011;32110;45.724;21.276;2023-07-02T08:40:46;15.23;;;10.73;;
46407;SDS011;32110;45.724;21.276;2023-07-02T08:43:11;17.23;;;11.35;;
46407;SDS011;32110;45.724;21.276;2023-07-02T08:45:37;18.77;;;10.63;;
46407;SDS011;32110;45.724;21.276;2023-07-02T08:48:05;16.23;;;10.65;;
46407;SDS011;32110;45.724;21.276;2023-07-02T08:50:31;16.98;;;10.30;;
46407;SDS011;32110;45.724;21.276;2023-07-02T08:52:56;13.57;;;10.52;;
46407;SDS011;32110;45.724;21.276;2023-07-02T08:55:21;14.93;;;9.90;;
46407;SDS011;32110;45.724;21.276;2023-07-02T08:57:49;14.48;;;10.75;;
46407;SDS011;32110;45.724;21.276;2023-07-02T09:00:17;14.70;;;11.45;;
46407;SDS011;32110;45.724;21.276;2023-07-02T09:02:43;18.67;;;11.77;;
46407;SDS011;32110;45.724;21.276;2023-07-02T09:05:09;17.75;;;11.05;;
46407;SDS011;32110;45.724;21.276;2023-07-02T09:07:47;15.75;;;11.15;;
46407;SDS011;32110;45.724;21.276;2023-07-02T09:10:30;13.90;;;11.00;;
46407;SDS011;32110;45.724;21.276;2023-07-02T09:13:03;19.95;;;12.98;;
46407;SDS011;32110;45.724;21.276;2023-07-02T09:15:39;15.82;;;11.50;;
46407;SDS011;32110;45.724;21.276;2023-07-02T09:18:27;16.85;;;11.10;;
46407;SDS011;32110;45.724;21.276;2023-07-02T09:20:51;14.75;;;10.63;;
46407;SDS011;32110;45.724;21.276;2023-07-02T09:23:19;12.98;;;10.27;;
46407;SDS011;32110;45.724;21.276;2023-07-02T09:25:45;14.82;;;10.20;;
46407;SDS011;32110;45.724;21.276;2023-07-02T09:28:17;15.93;;;10.87;;
46407;SDS011;32110;45.724;21.276;2023-07-02T09:30:54;13.13;;;10.02;;
46407;SDS011;32110;45.724;21.276;2023-07-02T09:33:22;13.35;;;10.45;;
46407;SDS011;32110;45.724;21.276;2023-07-02T09:35:49;14.57;;;10.32;;
46407;SDS011;32110;45.724;21.276;2023-07-02T09:38:16;13.75;;;10.65;;
46407;SDS011;32110;45.724;21.276;2023-07-02T09:40:44;14.43;;;9.98;;
46407;SDS011;32110;45.724;21.276;2023-07-02T09:43:12;11.55;;;9.32;;
46407;SDS011;32110;45.724;21.276;2023-07-02T09:45:38;13.57;;;9.68;;
46407;SDS011;32110;45.724;21.276;2023-07-02T09:48:19;12.38;;;9.85;;
46407;SDS011;32110;45.724;21.276;2023-07-02T09:50:49;14.25;;;9.05;;
46407;SDS011;32110;45.724;21.276;2023-07-02T09:53:15;11.73;;;8.77;;
46407;SDS011;32110;45.724;21.276;2023-07-02T09:55:43;13.10;;;8.90;;
46407;SDS011;32110;45.724;21.276;2023-07-02T09:58:09;11.63;;;9.27;;
46407;SDS011;32110;45.724;21.276;2023-07-02T10:00:36;12.40;;;9.32;;
46407;SDS011;32110;45.724;21.276;2023-07-02T10:03:02;13.07;;;9.20;;
46407;SDS011;32110;45.724;21.276;2023-07-02T10:05:29;12.23;;;9.20;;
46407;SDS011;32110;45.724;21.276;2023-07-02T10:07:55;15.88;;;9.73;;
46407;SDS011;32110;45.724;21.276;2023-07-02T10:10:39;12.95;;;9.00;;
46407;SDS011;32110;45.724;21.276;2023-07-02T10:13:05;14.52;;;9.05;;
46407;SDS011;32110;45.724;21.276;2023-07-02T10:15:31;11.95;;;9.35;;
46407;SDS011;32110;45.724;21.276;2023-07-02T10:20:46;12.18;;;8.52;;
46407;SDS011;32110;45.724;21.276;2023-07-02T10:23:11;11.43;;;8.52;;
46407;SDS011;32110;45.724;21.276;2023-07-02T10:25:37;10.88;;;8.63;;
46407;SDS011;32110;45.724;21.276;2023-07-02T10:28:18;11.70;;;8.05;;
46407;SDS011;32110;45.724;21.276;2023-07-02T10:30:47;12.30;;;8.60;;
46407;SDS011;32110;45.724;21.276;2023-07-02T10:33:16;13.15;;;8.07;;
46407;SDS011;32110;45.724;21.276;2023-07-02T10:35:43;10.57;;;7.68;;
46407;SDS011;32110;45.724;21.276;2023-07-02T10:38:22;13.90;;;9.52;;
46407;SDS011;32110;45.724;21.276;2023-07-02T10:43:27;10.05;;;8.52;;
46407;SDS011;32110;45.724;21.276;2023-07-02T10:45:53;10.98;;;8.90;;
46407;SDS011;32110;45.724;21.276;2023-07-02T10:48:19;13.98;;;9.15;;
46407;SDS011;32110;45.724;21.276;2023-07-02T10:50:45;11.68;;;8.60;;
46407;SDS011;32110;45.724;21.276;2023-07-02T10:53:17;11.27;;;8.52;;
46407;SDS011;32110;45.724;21.276;2023-07-02T10:55:43;11.00;;;8.95;;
46407;SDS011;32110;45.724;21.276;2023-07-02T10:58:10;11.32;;;9.18;;
46407;SDS011;32110;45.724;21.276;2023-07-02T11:05:46;12.75;;;9.10;;
46407;SDS011;32110;45.724;21.276;2023-07-02T11:08:12;12.35;;;8.38;;
46407;SDS011;32110;45.724;21.276;2023-07-02T11:10:38;13.40;;;8.32;;
46407;SDS011;32110;45.724;21.276;2023-07-02T11:13:14;10.75;;;8.35;;
46407;SDS011;32110;45.724;21.276;2023-07-02T11:15:41;11.15;;;8.25;;
46407;SDS011;32110;45.724;21.276;2023-07-02T11:18:10;10.18;;;8.90;;
46407;SDS011;32110;45.724;21.276;2023-07-02T11:20:43;27.58;;;19.42;;
46407;SDS011;32110;45.724;21.276;2023-07-02T11:23:22;19.08;;;14.18;;
46407;SDS011;32110;45.724;21.276;2023-07-02T11:28:22;17.38;;;9.57;;
46407;SDS011;32110;45.724;21.276;2023-07-02T11:30:47;15.48;;;11.80;;
46407;SDS011;32110;45.724;21.276;2023-07-02T11:33:13;20.93;;;12.07;;
46407;SDS011;32110;45.724;21.276;2023-07-02T11:35:38;16.58;;;13.20;;
46407;SDS011;32110;45.724;21.276;2023-07-02T11:38:03;12.13;;;9.93;;
46407;SDS011;32110;45.724;21.276;2023-07-02T11:40:29;13.65;;;9.98;;
46407;SDS011;32110;45.724;21.276;2023-07-02T11:42:54;14.80;;;10.25;;
46407;SDS011;32110;45.724;21.276;2023-07-02T11:45:20;14.02;;;9.52;;
46407;SDS011;32110;45.724;21.276;2023-07-02T11:47:45;11.98;;;9.23;;
46407;SDS011;32110;45.724;21.276;2023-07-02T11:50:11;10.40;;;8.60;;
46407;SDS011;32110;45.724;21.276;2023-07-02T11:52:36;13.30;;;8.65;;
46407;SDS011;32110;45.724;21.276;2023-07-02T11:55:02;11.80;;;9.10;;
46407;SDS011;32110;45.724;21.276;2023-07-02T11:57:27;13.40;;;8.32;;
46407;SDS011;32110;45.724;21.276;2023-07-02T11:59:52;8.82;;;7.30;;
46407;SDS011;32110;45.724;21.276;2023-07-02T12:02:18;11.52;;;7.60;;
46407;SDS011;32110;45.724;21.276;2023-07-02T12:04:44;9.07;;;7.47;;
46407;SDS011;32110;45.724;21.276;2023-07-02T12:07:09;9.32;;;7.60;;
46407;SDS011;32110;45.724;21.276;2023-07-02T12:09:35;9.15;;;7.80;;
46407;SDS011;32110;45.724;21.276;2023-07-02T12:12:01;9.68;;;7.60;;
46407;SDS011;32110;45.724;21.276;2023-07-02T12:14:27;10.52;;;7.30;;
46407;SDS011;32110;45.724;21.276;2023-07-02T12:16:53;10.48;;;7.70;;
46407;SDS011;32110;45.724;21.276;2023-07-02T12:19:18;9.48;;;8.32;;
46407;SDS011;32110;45.724;21.276;2023-07-02T12:21:44;12.50;;;9.15;;
46407;SDS011;32110;45.724;21.276;2023-07-02T12:24:09;10.98;;;9.15;;
46407;SDS011;32110;45.724;21.276;2023-07-02T12:26:36;10.10;;;8.18;;
46407;SDS011;32110;45.724;21.276;2023-07-02T12:29:01;11.55;;;8.32;;
46407;SDS011;32110;45.724;21.276;2023-07-02T12:31:27;10.02;;;8.35;;
46407;SDS011;32110;45.724;21.276;2023-07-02T12:33:52;11.85;;;7.70;;
46407;SDS011;32110;45.724;21.276;2023-07-02T12:36:18;10.35;;;7.20;;
46407;SDS011;32110;45.724;21.276;2023-07-02T12:38:43;8.50;;;6.90;;
46407;SDS011;32110;45.724;21.276;2023-07-02T12:41:08;10.75;;;6.85;;
46407;SDS011;32110;45.724;21.276;2023-07-02T12:43:34;10.85;;;6.70;;
46407;SDS011;32110;45.724;21.276;2023-07-02T12:45:59;7.88;;;6.75;;
46407;SDS011;32110;45.724;21.276;2023-07-02T12:48:25;7.85;;;6.75;;
46407;SDS011;32110;45.724;21.276;2023-07-02T12:50:57;9.40;;;6.82;;
46407;SDS011;32110;45.724;21.276;2023-07-02T12:53:23;8.60;;;6.70;;
46407;SDS011;32110;45.724;21.276;2023-07-02T12:55:50;10.40;;;7.18;;
46407;SDS011;32110;45.724;21.276;2023-07-02T12:58:15;8.52;;;6.50;;
46407;SDS011;32110;45.724;21.276;2023-07-02T13:00:41;8.40;;;6.80;;
46407;SDS011;32110;45.724;21.276;2023-07-02T13:03:09;12.98;;;7.18;;
46407;SDS011;32110;45.724;21.276;2023-07-02T13:05:35;9.98;;;6.72;;
46407;SDS011;32110;45.724;21.276;2023-07-02T13:08:01;9.10;;;7.45;;
46407;SDS011;32110;45.724;21.276;2023-07-02T13:10:26;10.70;;;8.05;;
46407;SDS011;32110;45.724;21.276;2023-07-02T13:12:51;10.15;;;8.75;;
46407;SDS011;32110;45.724;21.276;2023-07-02T13:15:17;10.85;;;8.73;;
46407;SDS011;32110;45.724;21.276;2023-07-02T13:17:42;13.13;;;8.38;;
46407;SDS011;32110;45.724;21.276;2023-07-02T13:20:08;12.20;;;8.30;;
46407;SDS011;32110;45.724;21.276;2023-07-02T13:22:34;10.90;;;8.23;;
46407;SDS011;32110;45.724;21.276;2023-07-02T13:24:59;14.88;;;8.85;;
46407;SDS011;32110;45.724;21.276;2023-07-02T13:27:25;9.32;;;7.10;;
46407;SDS011;32110;45.724;21.276;2023-07-02T13:29:50;9.60;;;7.10;;
46407;SDS011;32110;45.724;21.276;2023-07-02T13:32:15;9.73;;;6.53;;
46407;SDS011;32110;45.724;21.276;2023-07-02T13:34:41;8.40;;;6.32;;
46407;SDS011;32110;45.724;21.276;2023-07-02T13:37:07;6.55;;;5.63;;
46407;SDS011;32110;45.724;21.276;2023-07-02T13:39:33;8.32;;;5.90;;
46407;SDS011;32110;45.724;21.276;2023-07-02T13:41:58;7.28;;;5.72;;
46407;SDS011;32110;45.724;21.276;2023-07-02T13:44:24;8.98;;;5.38;;
46407;SDS011;32110;45.724;21.276;2023-07-02T13:46:49;6.07;;;5.28;;
46407;SDS011;32110;45.724;21.276;2023-07-02T13:49:14;5.97;;;5.18;;
46407;SDS011;32110;45.724;21.276;2023-07-02T13:51:40;6.47;;;5.13;;
46407;SDS011;32110;45.724;21.276;2023-07-02T13:54:05;10.32;;;5.50;;
46407;SDS011;32110;45.724;21.276;2023-07-02T13:56:31;7.35;;;5.60;;
46407;SDS011;32110;45.724;21.276;2023-07-02T14:01:22;7.03;;;5.97;;
46407;SDS011;32110;45.724;21.276;2023-07-02T14:03:48;7.05;;;5.00;;
46407;SDS011;32110;45.724;21.276;2023-07-02T14:06:13;7.53;;;4.78;;
46407;SDS011;32110;45.724;21.276;2023-07-02T14:08:39;4.83;;;3.97;;
46407;SDS011;32110;45.724;21.276;2023-07-02T14:11:04;7.72;;;4.88;;
46407;SDS011;32110;45.724;21.276;2023-07-02T14:13:29;5.55;;;4.18;;
46407;SDS011;32110;45.724;21.276;2023-07-02T14:15:56;5.25;;;3.80;;
46407;SDS011;32110;45.724;21.276;2023-07-02T14:18:21;4.40;;;3.80;;
46407;SDS011;32110;45.724;21.276;2023-07-02T14:20:47;4.97;;;3.88;;
46407;SDS011;32110;45.724;21.276;2023-07-02T14:23:12;4.63;;;3.78;;
46407;SDS011;32110;45.724;21.276;2023-07-02T14:25:37;5.85;;;3.80;;
46407;SDS011;32110;45.724;21.276;2023-07-02T14:28:03;5.32;;;3.75;;
46407;SDS011;32110;45.724;21.276;2023-07-02T14:30:29;4.30;;;3.47;;
46407;SDS011;32110;45.724;21.276;2023-07-02T14:32:54;5.28;;;3.60;;
46407;SDS011;32110;45.724;21.276;2023-07-02T14:35:19;3.72;;;2.92;;
46407;SDS011;32110;45.724;21.276;2023-07-02T14:37:50;4.85;;;3.30;;